Terminal Aerodrome Forecast
Issued by NWS

Home | Current Version | Previous Version | Graphics & Text | Print | Product List | Glossary On
Versions: 1 2 3 4 5 6 7 8 9 10 11 12 13 14 15 16 17 18 19 20
000
FTUS43 KMPX 261300 AAA
TAFAXN
TAF AMD
KAXN 261359Z 2614/2712 02011KT P6SM SCT015 BKN040
     FM261600 36013KT P6SM BKN025
     FM262000 34014KT P6SM SCT035 BKN080
     FM270000 34008KT P6SM SKC=

USA.gov is the U.S. government's official web portal to all federal, state and local government web resources and services.